Time;durP1;ratioP1;P1;durP2;ratioP2;P2;SDS_P1;SDS_P2;PMS_P1;PMS_P2;Temp;Humidity;BMP_temperature;BMP_pressure;BME280_temperature;BME280_humidity;BME280_pressure;Samples;Min_cycle;Max_cycle;Signal;HPM_P1;HPM_P2
2022/01/07 00:01:07;;;;;;;19.83;8.40;;;;;;;;;;4971613;28;20485;-79
2022/01/07 00:03:33;;;;;;;23.88;9.52;;;;;;;;;;4970990;28;20053;-79
2022/01/07 00:05:59;;;;;;;20.00;9.45;;;;;;;;;;4972677;28;20077;-78
2022/01/07 00:08:28;;;;;;;25.67;10.25;;;;;;;;;;4973757;28;20034;-78
2022/01/07 00:10:55;;;;;;;20.92;9.13;;;;;;;;;;4973455;28;20030;-79
2022/01/07 00:13:21;;;;;;;24.05;8.90;;;;;;;;;;4971761;28;20047;-78
2022/01/07 00:15:48;;;;;;;24.42;9.50;;;;;;;;;;4969350;28;20039;-77
2022/01/07 00:18:14;;;;;;;23.00;8.50;;;;;;;;;;4970917;28;20035;-78
2022/01/07 00:20:40;;;;;;;21.77;8.65;;;;;;;;;;4970043;28;20035;-77
2022/01/07 00:23:06;;;;;;;26.73;8.93;;;;;;;;;;4970015;28;20046;-78
2022/01/07 00:25:32;;;;;;;19.80;7.80;;;;;;;;;;4968854;28;20031;-78
2022/01/07 00:27:58;;;;;;;19.27;7.30;;;;;;;;;;4984181;28;20047;-79
2022/01/07 00:30:25;;;;;;;21.45;8.15;;;;;;;;;;4969219;28;20623;-78
2022/01/07 00:32:52;;;;;;;26.38;8.90;;;;;;;;;;4969724;28;20504;-78
2022/01/07 00:35:19;;;;;;;22.95;7.43;;;;;;;;;;4974833;28;20030;-78
2022/01/07 00:37:45;;;;;;;16.55;7.10;;;;;;;;;;4994856;28;20053;-78
2022/01/07 00:40:15;;;;;;;17.23;6.55;;;;;;;;;;4994639;28;20047;-78
2022/01/07 00:42:41;;;;;;;19.92;7.28;;;;;;;;;;4995157;28;20031;-78
2022/01/07 00:45:07;;;;;;;19.95;6.45;;;;;;;;;;4995731;28;20069;-78
2022/01/07 00:47:36;;;;;;;18.13;7.18;;;;;;;;;;4995493;28;20037;-78
2022/01/07 00:50:04;;;;;;;23.48;8.30;;;;;;;;;;4983881;28;20404;-78
2022/01/07 00:52:34;;;;;;;23.90;10.20;;;;;;;;;;4971313;28;20045;-78
2022/01/07 00:55:00;;;;;;;27.00;10.48;;;;;;;;;;4969678;28;20378;-79
2022/01/07 00:57:26;;;;;;;22.55;9.15;;;;;;;;;;4969683;28;20043;-79
2022/01/07 00:59:52;;;;;;;19.58;8.13;;;;;;;;;;4969890;28;20604;-78
2022/01/07 01:02:18;;;;;;;16.88;7.45;;;;;;;;;;4969949;28;20046;-78
2022/01/07 01:04:45;;;;;;;25.50;9.05;;;;;;;;;;4969545;28;20026;-78
2022/01/07 01:07:12;;;;;;;18.48;8.07;;;;;;;;;;4969806;28;20050;-78
2022/01/07 01:09:38;;;;;;;19.50;8.68;;;;;;;;;;4966328;28;20523;-77
2022/01/07 01:12:05;;;;;;;20.73;8.30;;;;;;;;;;4969282;28;20046;-77
2022/01/07 01:14:33;;;;;;;18.77;8.35;;;;;;;;;;4969574;28;20046;-76
2022/01/07 01:17:01;;;;;;;19.30;8.80;;;;;;;;;;4968712;28;20407;-78
2022/01/07 01:19:27;;;;;;;22.20;9.10;;;;;;;;;;4969393;28;20030;-76
2022/01/07 01:21:54;;;;;;;18.52;8.50;;;;;;;;;;4984770;28;20031;-78
2022/01/07 01:24:20;;;;;;;25.23;9.18;;;;;;;;;;4970698;28;20480;-77
2022/01/07 01:26:46;;;;;;;17.55;8.32;;;;;;;;;;4970455;28;20496;-77
2022/01/07 01:29:12;;;;;;;22.52;8.73;;;;;;;;;;4969655;28;20039;-78
2022/01/07 01:31:38;;;;;;;20.02;8.13;;;;;;;;;;4969274;28;20035;-78
2022/01/07 01:34:05;;;;;;;26.80;8.63;;;;;;;;;;4969017;28;20633;-78
2022/01/07 01:36:32;;;;;;;21.33;9.07;;;;;;;;;;4968778;28;20054;-79
2022/01/07 01:38:59;;;;;;;24.42;8.93;;;;;;;;;;4969090;28;20524;-79
2022/01/07 01:41:28;;;;;;;19.38;8.45;;;;;;;;;;4968575;28;20034;-77
2022/01/07 01:43:55;;;;;;;19.92;9.07;;;;;;;;;;4968674;28;20388;-77
2022/01/07 01:46:21;;;;;;;21.45;8.25;;;;;;;;;;4970696;28;20050;-77
2022/01/07 01:48:47;;;;;;;19.23;8.40;;;;;;;;;;4975318;28;20031;-77
2022/01/07 01:51:13;;;;;;;21.17;8.73;;;;;;;;;;4973990;28;20037;-77
2022/01/07 01:53:40;;;;;;;21.90;8.73;;;;;;;;;;4973809;28;20065;-79
2022/01/07 01:56:06;;;;;;;16.65;8.52;;;;;;;;;;4973467;28;20047;-79
2022/01/07 01:58:32;;;;;;;17.90;8.25;;;;;;;;;;4972893;28;20509;-77
2022/01/07 02:00:58;;;;;;;21.95;8.45;;;;;;;;;;4972536;28;20043;-79
2022/01/07 02:03:24;;;;;;;23.42;7.47;;;;;;;;;;4971203;28;20612;-77
2022/01/07 02:05:50;;;;;;;20.67;7.82;;;;;;;;;;4970893;28;20577;-79
2022/01/07 02:08:16;;;;;;;18.85;7.90;;;;;;;;;;4972003;28;20030;-79
2022/01/07 02:10:42;;;;;;;19.60;8.10;;;;;;;;;;4971772;28;20121;-79
2022/01/07 02:13:09;;;;;;;20.00;8.13;;;;;;;;;;4972249;28;20042;-78
2022/01/07 02:15:34;;;;;;;24.67;9.07;;;;;;;;;;4971417;28;20617;-78
2022/01/07 02:18:00;;;;;;;22.58;9.10;;;;;;;;;;4970854;28;20065;-78
2022/01/07 02:20:28;;;;;;;23.52;8.32;;;;;;;;;;4970957;28;20558;-78
2022/01/07 02:22:56;;;;;;;22.42;8.55;;;;;;;;;;4971403;28;20047;-77
2022/01/07 02:25:23;;;;;;;18.60;8.10;;;;;;;;;;4971699;28;20058;-78
2022/01/07 02:27:49;;;;;;;25.92;8.27;;;;;;;;;;4971491;28;20038;-78
2022/01/07 02:30:19;;;;;;;18.90;8.65;;;;;;;;;;4971079;28;20417;-78
2022/01/07 02:32:46;;;;;;;22.02;8.07;;;;;;;;;;4970588;28;20038;-78
2022/01/07 02:35:13;;;;;;;20.73;8.20;;;;;;;;;;4970287;28;20035;-78
2022/01/07 02:37:39;;;;;;;19.38;8.32;;;;;;;;;;4985343;28;20049;-79
2022/01/07 02:40:07;;;;;;;21.27;8.85;;;;;;;;;;4968223;28;20045;-78
2022/01/07 17:20:20;;;;;;;11.93;6.20;;;;;;;;;;5064267;28;20636;-71
2022/01/07 17:22:46;;;;;;;12.85;6.57;;;;;;;;;;5055888;27;20059;-71
2022/01/07 17:25:13;;;;;;;10.10;6.43;;;;;;;;;;5006542;28;20042;-72
2022/01/07 17:27:48;;;;;;;10.73;5.75;;;;;;;;;;5006740;28;20053;-79
2022/01/07 17:30:15;;;;;;;9.70;5.88;;;;;;;;;;5005473;28;20042;-76
2022/01/07 17:32:41;;;;;;;13.93;6.40;;;;;;;;;;5006394;28;20046;-76
2022/01/07 17:35:08;;;;;;;14.23;6.45;;;;;;;;;;5005713;28;20038;-76
2022/01/07 17:37:34;;;;;;;10.65;6.50;;;;;;;;;;5006008;28;20057;-80
2022/01/07 17:39:59;;;;;;;10.35;6.22;;;;;;;;;;5003851;28;20532;-77
2022/01/07 17:42:26;;;;;;;9.52;5.90;;;;;;;;;;5006110;28;20125;-76
2022/01/07 17:44:52;;;;;;;14.70;6.80;;;;;;;;;;5006151;28;20494;-76
2022/01/07 17:47:18;;;;;;;10.15;6.13;;;;;;;;;;5005664;28;20041;-74
2022/01/07 17:49:47;;;;;;;8.45;4.80;;;;;;;;;;5003952;28;20057;-74
2022/01/07 17:52:13;;;;;;;7.55;4.13;;;;;;;;;;5005816;28;20042;-74
2022/01/07 17:54:39;;;;;;;9.25;4.80;;;;;;;;;;5005568;28;20120;-76
2022/01/07 17:57:05;;;;;;;7.50;4.38;;;;;;;;;;5009915;28;20168;-74
2022/01/07 17:59:32;;;;;;;7.65;4.10;;;;;;;;;;5005116;28;20026;-75
2022/01/07 18:01:59;;;;;;;7.68;4.10;;;;;;;;;;5004656;28;20026;-70
2022/01/07 18:04:25;;;;;;;9.02;4.15;;;;;;;;;;5000171;28;20050;-70
2022/01/07 18:06:51;;;;;;;8.40;4.18;;;;;;;;;;4953227;28;20038;-71
2022/01/07 18:09:18;;;;;;;8.38;4.40;;;;;;;;;;4997623;28;20053;-71
2022/01/07 18:11:45;;;;;;;6.57;3.83;;;;;;;;;;5017920;28;20057;-71
2022/01/07 18:14:11;;;;;;;7.53;3.55;;;;;;;;;;4999812;28;20033;-71
2022/01/07 18:16:37;;;;;;;6.70;3.75;;;;;;;;;;4984184;28;20041;-71
2022/01/07 18:19:04;;;;;;;6.93;3.40;;;;;;;;;;4983971;28;20051;-70
2022/01/07 18:21:32;;;;;;;5.53;3.63;;;;;;;;;;4984350;28;20502;-70
2022/01/07 18:23:57;;;;;;;5.53;3.25;;;;;;;;;;4984638;28;20034;-70
2022/01/07 18:26:24;;;;;;;6.97;3.58;;;;;;;;;;4984200;28;20074;-70
2022/01/07 18:28:50;;;;;;;5.63;3.28;;;;;;;;;;4983051;28;20077;-69
2022/01/07 18:31:17;;;;;;;6.10;3.00;;;;;;;;;;4973151;28;20066;-72
2022/01/07 18:33:44;;;;;;;3.45;2.40;;;;;;;;;;4966290;28;20351;-69
2022/01/07 18:36:10;;;;;;;5.13;2.70;;;;;;;;;;4969469;28;20416;-70
2022/01/07 18:38:36;;;;;;;5.47;2.80;;;;;;;;;;4971660;28;20070;-71
2022/01/07 18:41:02;;;;;;;3.75;2.33;;;;;;;;;;4970693;28;20215;-72
2022/01/07 18:43:28;;;;;;;4.07;2.50;;;;;;;;;;4959611;28;20031;-70
2022/01/07 18:45:56;;;;;;;5.40;2.95;;;;;;;;;;4971030;28;20721;-70
2022/01/07 18:48:28;;;;;;;5.55;3.13;;;;;;;;;;4965308;28;20056;-71
2022/01/07 18:50:56;;;;;;;5.65;2.85;;;;;;;;;;4960496;28;20035;-71
2022/01/07 18:53:22;;;;;;;7.03;3.28;;;;;;;;;;4971743;28;20027;-71
2022/01/07 18:55:48;;;;;;;5.43;3.10;;;;;;;;;;4971882;28;20042;-71
2022/01/07 18:58:14;;;;;;;6.20;2.78;;;;;;;;;;4971840;28;20050;-70
2022/01/07 19:00:40;;;;;;;5.07;2.90;;;;;;;;;;4971168;28;20490;-71
2022/01/07 19:03:06;;;;;;;5.82;2.80;;;;;;;;;;4971146;28;20039;-72
2022/01/07 19:05:32;;;;;;;5.43;2.95;;;;;;;;;;4971503;28;20038;-71
2022/01/07 19:07:57;;;;;;;7.00;3.55;;;;;;;;;;4971144;28;20027;-71
2022/01/07 19:10:25;;;;;;;6.60;3.13;;;;;;;;;;4961768;28;20138;-73
2022/01/07 19:12:51;;;;;;;6.30;3.70;;;;;;;;;;4970431;28;20026;-72
2022/01/07 19:15:17;;;;;;;8.57;4.10;;;;;;;;;;4968122;28;20107;-72
2022/01/07 19:17:43;;;;;;;4.90;3.05;;;;;;;;;;4967020;28;20034;-71
2022/01/07 19:20:10;;;;;;;6.28;3.15;;;;;;;;;;4967447;28;20110;-71
2022/01/07 19:22:37;;;;;;;6.35;3.55;;;;;;;;;;4971479;28;20058;-72
2022/01/07 19:25:05;;;;;;;7.57;4.05;;;;;;;;;;4965525;28;20118;-72
2022/01/07 19:27:31;;;;;;;6.95;3.45;;;;;;;;;;4954981;29;20046;-71
2022/01/07 19:29:57;;;;;;;7.65;3.50;;;;;;;;;;4964877;28;20049;-72
2022/01/07 19:32:26;;;;;;;8.30;3.67;;;;;;;;;;4965023;28;20496;-71
2022/01/07 19:34:51;;;;;;;6.45;3.35;;;;;;;;;;4972001;28;20408;-71
2022/01/07 19:37:18;;;;;;;6.80;3.40;;;;;;;;;;4970026;28;20054;-72
2022/01/07 19:39:53;;;;;;;5.60;2.97;;;;;;;;;;4971457;28;20537;-71
2022/01/07 19:42:19;;;;;;;5.45;3.13;;;;;;;;;;4956560;28;20110;-73
2022/01/07 19:44:46;;;;;;;5.68;2.97;;;;;;;;;;4965698;28;20389;-74
2022/01/07 19:47:12;;;;;;;7.00;3.63;;;;;;;;;;4964313;28;20030;-74
2022/01/07 19:49:38;;;;;;;6.07;3.38;;;;;;;;;;4966380;28;20070;-74
2022/01/07 19:52:04;;;;;;;7.32;3.30;;;;;;;;;;4959684;28;20035;-74
2022/01/07 19:54:30;;;;;;;5.82;3.25;;;;;;;;;;4959008;28;20034;-73
2022/01/07 19:56:56;;;;;;;7.88;3.47;;;;;;;;;;4969729;28;20035;-73
2022/01/07 19:59:22;;;;;;;7.00;3.80;;;;;;;;;;4960707;28;20051;-73
2022/01/07 20:01:48;;;;;;;6.00;3.80;;;;;;;;;;4969168;28;20027;-72
2022/01/07 20:04:14;;;;;;;7.88;3.55;;;;;;;;;;4969693;28;20455;-72
2022/01/07 20:06:40;;;;;;;6.63;3.92;;;;;;;;;;4970075;28;20046;-72
2022/01/07 20:09:06;;;;;;;7.47;3.75;;;;;;;;;;4962385;28;20053;-71
2022/01/07 20:11:31;;;;;;;7.18;4.13;;;;;;;;;;4972169;28;20042;-72
2022/01/07 20:13:58;;;;;;;8.45;4.10;;;;;;;;;;4973260;28;20051;-70
2022/01/07 20:16:24;;;;;;;8.57;4.00;;;;;;;;;;4973456;28;20043;-71
2022/01/07 20:18:50;;;;;;;7.20;4.05;;;;;;;;;;4973669;28;20409;-71
2022/01/07 20:21:16;;;;;;;7.63;3.70;;;;;;;;;;4979491;28;20037;-71
2022/01/07 20:23:46;;;;;;;8.20;3.78;;;;;;;;;;4978579;28;20053;-73
2022/01/07 20:26:19;;;;;;;8.20;3.45;;;;;;;;;;4978259;28;20042;-75
2022/01/07 20:28:50;;;;;;;8.05;3.80;;;;;;;;;;4970602;28;20547;-72
2022/01/07 20:31:19;;;;;;;7.28;4.05;;;;;;;;;;4956393;28;20038;-74
2022/01/07 20:36:21;;;;;;;6.55;4.03;;;;;;;;;;5673107;23;20093;-77
2022/01/07 20:38:47;;;;;;;6.43;3.42;;;;;;;;;;5022681;23;20068;-74
2022/01/07 20:41:15;;;;;;;6.13;3.90;;;;;;;;;;4959050;28;20050;-72
2022/01/07 20:43:44;;;;;;;7.35;4.22;;;;;;;;;;4972253;28;20038;-75
2022/01/07 20:46:16;;;;;;;7.68;4.30;;;;;;;;;;4969916;28;20042;-74
2022/01/07 20:48:45;;;;;;;10.93;4.63;;;;;;;;;;4959892;28;20578;-78
2022/01/07 20:51:11;;;;;;;11.68;4.70;;;;;;;;;;4971431;28;20027;-74
2022/01/07 20:53:39;;;;;;;8.23;4.25;;;;;;;;;;4966787;28;20394;-73
2022/01/07 20:56:05;;;;;;;7.25;4.10;;;;;;;;;;4968498;28;20523;-73
2022/01/07 20:58:31;;;;;;;6.63;4.13;;;;;;;;;;4967179;28;20050;-73
2022/01/07 21:00:57;;;;;;;8.15;4.10;;;;;;;;;;4967943;28;20042;-72
2022/01/07 21:03:23;;;;;;;8.40;4.35;;;;;;;;;;4965317;28;20051;-70
2022/01/07 21:05:50;;;;;;;9.63;4.28;;;;;;;;;;4956327;28;20430;-72
2022/01/07 21:08:16;;;;;;;9.25;4.82;;;;;;;;;;4975444;28;20400;-73
2022/01/07 21:10:42;;;;;;;7.93;4.40;;;;;;;;;;4964434;28;20035;-72
2022/01/07 21:13:08;;;;;;;9.35;4.38;;;;;;;;;;4968187;28;20031;-76
2022/01/07 21:15:35;;;;;;;10.43;4.18;;;;;;;;;;4970751;28;20053;-69
2022/01/07 21:18:00;;;;;;;9.85;3.80;;;;;;;;;;4973529;28;20051;-70
2022/01/07 21:20:26;;;;;;;7.45;4.20;;;;;;;;;;4959152;28;20102;-72
2022/01/07 21:22:53;;;;;;;9.00;4.75;;;;;;;;;;4971558;28;20053;-71
2022/01/07 21:25:19;;;;;;;8.10;4.22;;;;;;;;;;4965589;28;20035;-70
2022/01/07 21:27:45;;;;;;;18.75;9.68;;;;;;;;;;4963574;28;20050;-71
2022/01/07 21:30:14;;;;;;;7.38;4.30;;;;;;;;;;4967793;28;20042;-71
2022/01/07 21:32:40;;;;;;;8.05;4.30;;;;;;;;;;4968529;28;20039;-71
2022/01/07 21:35:13;;;;;;;7.05;4.10;;;;;;;;;;4968230;28;20053;-71
2022/01/07 21:37:42;;;;;;;6.53;4.10;;;;;;;;;;4968109;28;20034;-71
2022/01/07 21:40:10;;;;;;;7.53;4.60;;;;;;;;;;4967849;28;20039;-71
2022/01/07 21:42:36;;;;;;;7.72;4.50;;;;;;;;;;4968122;28;20027;-71
2022/01/07 21:45:06;;;;;;;8.77;5.20;;;;;;;;;;4962043;28;20035;-71
2022/01/07 21:47:32;;;;;;;7.25;4.30;;;;;;;;;;4968086;28;20034;-70
2022/01/07 21:49:58;;;;;;;10.88;4.65;;;;;;;;;;4965181;28;20424;-70
2022/01/07 21:52:24;;;;;;;8.80;4.55;;;;;;;;;;4982645;28;20035;-70
2022/01/07 21:54:50;;;;;;;11.00;4.45;;;;;;;;;;4967692;28;20034;-70
2022/01/07 21:57:16;;;;;;;8.70;5.10;;;;;;;;;;4967412;28;20109;-71
2022/01/07 21:59:43;;;;;;;8.30;4.85;;;;;;;;;;4967048;28;20038;-71
2022/01/07 22:02:09;;;;;;;7.88;4.57;;;;;;;;;;4967817;28;20043;-72
2022/01/07 22:04:35;;;;;;;9.00;4.93;;;;;;;;;;4967891;28;20515;-73
2022/01/07 22:07:03;;;;;;;8.35;4.60;;;;;;;;;;4970889;28;20081;-73
2022/01/07 22:09:29;;;;;;;8.40;4.53;;;;;;;;;;4970557;28;20030;-71
2022/01/07 22:11:57;;;;;;;10.30;4.95;;;;;;;;;;4967729;28;20039;-73
2022/01/07 22:14:23;;;;;;;11.30;4.75;;;;;;;;;;4964974;28;20053;-74
2022/01/07 22:16:49;;;;;;;7.72;4.95;;;;;;;;;;4967139;28;20049;-73
2022/01/07 22:19:15;;;;;;;9.07;5.38;;;;;;;;;;4970836;28;20046;-75
2022/01/07 22:21:45;;;;;;;9.40;5.07;;;;;;;;;;4968049;28;20472;-73
2022/01/07 22:24:11;;;;;;;10.48;4.97;;;;;;;;;;4970311;28;20057;-72
2022/01/07 22:26:38;;;;;;;11.93;5.60;;;;;;;;;;4958474;28;20050;-72
2022/01/07 22:29:05;;;;;;;11.68;5.70;;;;;;;;;;4951560;29;20031;-73
2022/01/07 22:31:31;;;;;;;11.63;5.68;;;;;;;;;;4951675;29;20043;-72
2022/01/07 22:33:57;;;;;;;13.63;6.60;;;;;;;;;;4949379;29;20039;-72
2022/01/07 22:36:23;;;;;;;10.73;6.22;;;;;;;;;;4951761;29;20041;-71
2022/01/07 22:38:49;;;;;;;10.48;6.57;;;;;;;;;;4953447;28;20047;-71
2022/01/07 22:41:15;;;;;;;10.57;6.35;;;;;;;;;;4968508;28;20043;-72
2022/01/07 22:43:41;;;;;;;12.82;6.93;;;;;;;;;;4984501;28;20094;-71
2022/01/07 22:46:07;;;;;;;12.32;7.72;;;;;;;;;;4970329;28;20047;-71
2022/01/07 22:48:33;;;;;;;15.63;7.63;;;;;;;;;;4978341;28;20039;-72
2022/01/07 22:50:59;;;;;;;11.90;7.43;;;;;;;;;;4969792;28;20443;-72
2022/01/07 22:53:27;;;;;;;12.73;7.95;;;;;;;;;;4956050;28;20065;-72
2022/01/07 22:55:53;;;;;;;14.85;8.13;;;;;;;;;;4967786;28;20046;-71
2022/01/07 22:58:19;;;;;;;13.38;8.40;;;;;;;;;;4971588;28;20046;-72
2022/01/07 23:00:45;;;;;;;16.75;8.98;;;;;;;;;;4970667;28;20070;-72
2022/01/07 23:03:10;;;;;;;16.40;9.48;;;;;;;;;;4971473;28;20061;-71
2022/01/07 23:05:36;;;;;;;16.67;10.00;;;;;;;;;;4971624;28;20374;-72
2022/01/07 23:08:02;;;;;;;16.65;10.25;;;;;;;;;;4971036;28;20126;-70
2022/01/07 23:10:28;;;;;;;21.10;10.07;;;;;;;;;;4971162;28;20058;-70
2022/01/07 23:12:56;;;;;;;17.80;10.60;;;;;;;;;;4970737;28;20039;-72
2022/01/07 23:15:24;;;;;;;20.20;10.60;;;;;;;;;;4970943;28;20030;-72
2022/01/07 23:17:52;;;;;;;17.83;10.77;;;;;;;;;;4971037;28;20039;-71
2022/01/07 23:20:18;;;;;;;21.10;10.95;;;;;;;;;;4970372;28;20046;-72
2022/01/07 23:22:44;;;;;;;17.48;10.82;;;;;;;;;;4970747;28;20047;-72
2022/01/07 23:25:10;;;;;;;16.67;10.07;;;;;;;;;;4971049;28;20380;-71
2022/01/07 23:27:36;;;;;;;17.08;10.38;;;;;;;;;;4971022;28;20053;-71
2022/01/07 23:30:04;;;;;;;19.58;11.23;;;;;;;;;;4970849;28;20050;-72
2022/01/07 23:32:30;;;;;;;20.98;12.25;;;;;;;;;;4971754;28;20030;-71
2022/01/07 23:34:56;;;;;;;20.67;12.13;;;;;;;;;;4971307;28;20035;-72
2022/01/07 23:37:22;;;;;;;23.80;11.93;;;;;;;;;;4970427;28;20054;-72
2022/01/07 23:39:47;;;;;;;22.33;12.50;;;;;;;;;;4970733;28;20085;-72
2022/01/07 23:42:13;;;;;;;21.00;12.50;;;;;;;;;;4970119;28;20069;-71
2022/01/07 23:44:39;;;;;;;23.58;12.23;;;;;;;;;;4970911;28;20524;-70
2022/01/07 23:47:05;;;;;;;20.85;12.13;;;;;;;;;;4970530;28;20037;-72
2022/01/07 23:49:31;;;;;;;22.30;12.95;;;;;;;;;;4968802;28;20035;-72
2022/01/07 23:51:57;;;;;;;24.30;12.55;;;;;;;;;;4970291;28;20062;-72
2022/01/07 23:54:23;;;;;;;23.25;12.88;;;;;;;;;;4970437;28;20069;-71
2022/01/07 23:56:49;;;;;;;22.38;13.50;;;;;;;;;;4970064;28;20996;-71
2022/01/07 23:59:15;;;;;;;19.33;12.75;;;;;;;;;;4970278;28;20073;-72
